Time;durP1;ratioP1;P1;durP2;ratioP2;P2;SDS_P1;SDS_P2;PMS_P1;PMS_P2;Temp;Humidity;BMP_temperature;BMP_pressure;BME280_temperature;BME280_humidity;BME280_pressure;Samples;Min_cycle;Max_cycle;Signal;HPM_P1;HPM_P2
2022/04/13 00:02:03;;;;;;;20.73;7.70;;;;;;;;;;4978638;28;20095;-75
2022/04/13 00:04:28;;;;;;;20.15;8.38;;;;;;;;;;4980765;28;20030;-75
2022/04/13 00:06:53;;;;;;;31.27;9.27;;;;;;;;;;4977935;28;20031;-75
2022/04/13 00:09:19;;;;;;;28.58;10.18;;;;;;;;;;4980119;28;20042;-75
2022/04/13 00:11:44;;;;;;;27.10;9.63;;;;;;;;;;4978859;28;20373;-74
2022/04/13 00:14:09;;;;;;;22.13;8.43;;;;;;;;;;4980020;28;20752;-74
2022/04/13 00:16:35;;;;;;;29.17;8.82;;;;;;;;;;4979561;28;20049;-75
2022/04/13 00:19:00;;;;;;;28.90;9.18;;;;;;;;;;4983661;28;20030;-75
2022/04/13 00:21:25;;;;;;;32.55;10.52;;;;;;;;;;4981468;28;20053;-75
2022/04/13 00:23:50;;;;;;;40.15;12.60;;;;;;;;;;4976389;28;20023;-74
2022/04/13 00:26:15;;;;;;;27.30;11.17;;;;;;;;;;4980311;28;20108;-75
2022/04/13 00:28:41;;;;;;;26.67;8.70;;;;;;;;;;4976078;28;21101;-75
2022/04/13 00:31:06;;;;;;;24.55;8.82;;;;;;;;;;4979490;28;20347;-75
2022/04/13 00:33:33;;;;;;;27.20;8.57;;;;;;;;;;4979554;28;20454;-75
2022/04/13 00:35:58;;;;;;;20.25;7.20;;;;;;;;;;4980928;28;20037;-75
2022/04/13 00:38:23;;;;;;;27.52;7.68;;;;;;;;;;4981802;28;20030;-75
2022/04/13 00:40:49;;;;;;;18.30;7.18;;;;;;;;;;4980380;28;20050;-75
2022/04/13 00:43:14;;;;;;;15.77;8.02;;;;;;;;;;4980460;28;20037;-75
2022/04/13 00:45:43;;;;;;;22.75;8.57;;;;;;;;;;4978697;28;20022;-75
2022/04/13 00:48:09;;;;;;;20.92;8.18;;;;;;;;;;4988555;28;20022;-75
2022/04/13 00:50:34;;;;;;;15.13;7.05;;;;;;;;;;4979498;28;21478;-75
2022/04/13 00:53:00;;;;;;;20.30;8.48;;;;;;;;;;4979941;28;20498;-75
2022/04/13 00:55:26;;;;;;;22.83;9.20;;;;;;;;;;4980136;28;20068;-75
2022/04/13 00:57:52;;;;;;;17.20;8.05;;;;;;;;;;4983624;28;20077;-75
2022/04/13 01:00:17;;;;;;;25.50;9.13;;;;;;;;;;4978895;28;20026;-75
2022/04/13 01:02:42;;;;;;;17.98;9.15;;;;;;;;;;4981583;28;20023;-75
2022/04/13 01:05:08;;;;;;;23.75;8.90;;;;;;;;;;4982014;28;20761;-75
2022/04/13 01:07:34;;;;;;;21.85;10.82;;;;;;;;;;4980594;28;20503;-75
2022/04/13 01:10:00;;;;;;;17.58;8.80;;;;;;;;;;4981058;28;20026;-75
2022/04/13 01:12:26;;;;;;;19.33;9.20;;;;;;;;;;4982863;28;20466;-75
2022/04/13 01:14:51;;;;;;;22.90;9.57;;;;;;;;;;4981261;28;20030;-75
2022/04/13 01:17:16;;;;;;;18.80;9.00;;;;;;;;;;4981838;28;20041;-74
2022/04/13 01:19:43;;;;;;;26.38;8.30;;;;;;;;;;4982688;28;20549;-74
2022/04/13 01:22:14;;;;;;;16.00;7.93;;;;;;;;;;5003074;28;20110;-75
2022/04/13 01:24:39;;;;;;;24.52;9.27;;;;;;;;;;4981098;28;20587;-74
2022/04/13 01:27:05;;;;;;;32.13;9.43;;;;;;;;;;4978649;28;20030;-74
2022/04/13 01:29:30;;;;;;;26.87;10.03;;;;;;;;;;4981887;28;20042;-75
2022/04/13 01:31:55;;;;;;;19.30;7.65;;;;;;;;;;4978541;28;20787;-74
2022/04/13 01:34:20;;;;;;;17.02;9.13;;;;;;;;;;4976280;28;20115;-74
2022/04/13 01:36:46;;;;;;;19.92;8.75;;;;;;;;;;4977590;28;20014;-75
2022/04/13 01:39:11;;;;;;;23.08;8.60;;;;;;;;;;4981049;28;20477;-75
2022/04/13 01:41:36;;;;;;;18.77;8.35;;;;;;;;;;4980303;28;20521;-74
2022/04/13 01:44:01;;;;;;;20.30;7.80;;;;;;;;;;4982194;28;20117;-75
2022/04/13 01:46:26;;;;;;;20.17;7.90;;;;;;;;;;4981460;28;20753;-74
2022/04/13 01:48:52;;;;;;;22.90;8.67;;;;;;;;;;4982173;28;20022;-75
2022/04/13 01:51:20;;;;;;;23.40;8.60;;;;;;;;;;4986463;28;20272;-74
2022/04/13 01:53:45;;;;;;;24.60;9.18;;;;;;;;;;4979787;28;20030;-74
2022/04/13 01:56:10;;;;;;;25.93;8.93;;;;;;;;;;4979035;28;20407;-74
2022/04/13 01:58:35;;;;;;;21.63;8.20;;;;;;;;;;4975913;28;20061;-74
2022/04/13 02:01:01;;;;;;;20.02;8.90;;;;;;;;;;4979370;28;20279;-74
2022/04/13 02:03:26;;;;;;;23.90;9.10;;;;;;;;;;4977244;28;20062;-74
2022/04/13 02:05:52;;;;;;;27.90;10.60;;;;;;;;;;4973222;28;20054;-75
2022/04/13 02:08:18;;;;;;;19.88;9.23;;;;;;;;;;4980113;28;20021;-74
2022/04/13 02:10:43;;;;;;;26.48;9.77;;;;;;;;;;4982380;28;20033;-74
2022/04/13 02:13:08;;;;;;;25.60;10.00;;;;;;;;;;4985514;28;20026;-74
2022/04/13 02:15:33;;;;;;;28.55;10.13;;;;;;;;;;4985483;28;20286;-74
2022/04/13 02:17:59;;;;;;;21.53;10.03;;;;;;;;;;4976401;28;20129;-74
2022/04/13 02:20:24;;;;;;;27.37;10.27;;;;;;;;;;4982593;28;20283;-75
2022/04/13 02:22:49;;;;;;;23.95;10.65;;;;;;;;;;4978844;28;20275;-74
2022/04/13 02:25:14;;;;;;;42.93;11.50;;;;;;;;;;4980410;28;20153;-75
2022/04/13 02:27:40;;;;;;;28.20;11.03;;;;;;;;;;4978067;28;20026;-75
2022/04/13 02:30:05;;;;;;;27.98;12.55;;;;;;;;;;4977318;28;20303;-75
2022/04/13 02:32:31;;;;;;;28.13;10.38;;;;;;;;;;4978318;28;20469;-75
2022/04/13 02:34:56;;;;;;;24.67;10.90;;;;;;;;;;4986534;28;20026;-75
2022/04/13 02:37:21;;;;;;;27.67;10.33;;;;;;;;;;4982099;28;20267;-74
2022/04/13 02:39:46;;;;;;;25.93;10.60;;;;;;;;;;4979682;28;20050;-75
2022/04/13 02:42:17;;;;;;;28.17;10.07;;;;;;;;;;4977106;28;20351;-75
2022/04/13 02:44:43;;;;;;;26.20;10.55;;;;;;;;;;4977669;28;20769;-74
2022/04/13 02:47:08;;;;;;;24.92;10.75;;;;;;;;;;4979674;28;20014;-75
2022/04/13 02:49:33;;;;;;;20.77;10.77;;;;;;;;;;4979037;28;20022;-74
2022/04/13 02:51:58;;;;;;;29.92;10.25;;;;;;;;;;4979779;28;20271;-75
2022/04/13 02:54:23;;;;;;;29.50;11.60;;;;;;;;;;4976676;28;20389;-75
2022/04/13 02:56:49;;;;;;;20.63;10.77;;;;;;;;;;4977152;28;20077;-75
2022/04/13 02:59:14;;;;;;;26.70;11.10;;;;;;;;;;4977905;28;20034;-75
2022/04/13 03:01:40;;;;;;;26.00;10.68;;;;;;;;;;4978908;28;20359;-74
2022/04/13 03:04:05;;;;;;;24.20;9.93;;;;;;;;;;4979492;28;20037;-75
2022/04/13 03:06:30;;;;;;;20.13;10.68;;;;;;;;;;4978227;28;20308;-75
2022/04/13 03:08:55;;;;;;;31.10;12.00;;;;;;;;;;4981672;28;20065;-75
2022/04/13 03:11:20;;;;;;;25.23;11.13;;;;;;;;;;4983794;28;20049;-75
2022/04/13 03:13:46;;;;;;;32.08;11.48;;;;;;;;;;4976141;28;20374;-74
2022/04/13 03:16:12;;;;;;;31.77;11.15;;;;;;;;;;4993839;28;20085;-75
2022/04/13 03:18:37;;;;;;;35.85;12.60;;;;;;;;;;4981438;28;20037;-75
2022/04/13 03:21:02;;;;;;;35.53;11.30;;;;;;;;;;4985692;28;20026;-75
2022/04/13 03:23:27;;;;;;;36.05;12.05;;;;;;;;;;4984652;28;20468;-74
2022/04/13 03:25:53;;;;;;;20.45;10.57;;;;;;;;;;4985847;28;20026;-75
2022/04/13 03:28:19;;;;;;;30.85;11.88;;;;;;;;;;4982828;28;20113;-74
2022/04/13 03:30:45;;;;;;;32.88;11.95;;;;;;;;;;4981282;28;20124;-75
2022/04/13 03:33:10;;;;;;;30.33;11.30;;;;;;;;;;4979105;28;20109;-75
2022/04/13 03:35:35;;;;;;;37.90;12.17;;;;;;;;;;4982337;28;20031;-74
2022/04/13 03:38:00;;;;;;;31.33;12.27;;;;;;;;;;4977266;28;20472;-75
2022/04/13 03:40:26;;;;;;;31.67;12.15;;;;;;;;;;4981168;28;20034;-75
2022/04/13 03:42:51;;;;;;;30.42;12.77;;;;;;;;;;4981684;28;20026;-75
2022/04/13 03:45:16;;;;;;;22.93;11.73;;;;;;;;;;4980519;28;20524;-75
2022/04/13 03:47:42;;;;;;;26.87;12.50;;;;;;;;;;4982886;28;20029;-75
2022/04/13 03:50:07;;;;;;;27.38;12.45;;;;;;;;;;4983759;28;20751;-75
2022/04/13 03:52:33;;;;;;;34.03;12.98;;;;;;;;;;4982204;28;20022;-74
2022/04/13 03:54:58;;;;;;;36.22;13.20;;;;;;;;;;4980544;28;20381;-74
2022/04/13 03:57:23;;;;;;;35.47;13.40;;;;;;;;;;4982244;28;20022;-75
2022/04/13 03:59:50;;;;;;;45.03;13.63;;;;;;;;;;4982321;28;20021;-75
2022/04/13 04:02:16;;;;;;;31.50;14.07;;;;;;;;;;4989389;28;20022;-75
2022/04/13 04:04:41;;;;;;;28.88;12.15;;;;;;;;;;4986256;28;20031;-74
2022/04/13 04:07:06;;;;;;;35.50;13.63;;;;;;;;;;4989420;28;20030;-75
2022/04/13 04:09:31;;;;;;;34.63;14.37;;;;;;;;;;4982811;28;20102;-74
2022/04/13 04:11:56;;;;;;;39.35;14.60;;;;;;;;;;4980949;28;20314;-74
2022/04/13 04:14:21;;;;;;;43.47;14.80;;;;;;;;;;4979557;28;20030;-74
2022/04/13 04:16:47;;;;;;;39.45;13.73;;;;;;;;;;4988606;28;20680;-74
2022/04/13 04:19:12;;;;;;;46.03;14.70;;;;;;;;;;4983175;28;20140;-74
2022/04/13 04:21:37;;;;;;;43.73;14.07;;;;;;;;;;4985347;28;20678;-74
2022/04/13 04:24:02;;;;;;;36.83;12.90;;;;;;;;;;4984036;28;20030;-74
2022/04/13 04:26:27;;;;;;;24.13;13.05;;;;;;;;;;4981506;28;20642;-74
2022/04/13 04:28:53;;;;;;;30.80;12.38;;;;;;;;;;4978858;28;20026;-74
2022/04/13 04:31:49;;;;;;;33.03;13.53;;;;;;;;;;4981542;28;20034;-74
2022/04/13 04:34:03;;;;;;;36.10;12.95;;;;;;;;;;4982562;28;20840;-74
2022/04/13 04:36:28;;;;;;;24.90;12.55;;;;;;;;;;4980204;28;20141;-74
2022/04/13 04:38:53;;;;;;;41.88;13.35;;;;;;;;;;4976627;28;20380;-74
2022/04/13 04:41:19;;;;;;;25.67;11.57;;;;;;;;;;4979169;28;20042;-74
2022/04/13 04:43:44;;;;;;;29.60;13.85;;;;;;;;;;4976727;28;20030;-74
2022/04/13 04:46:10;;;;;;;28.10;12.70;;;;;;;;;;4980750;28;20041;-74
2022/04/13 04:48:36;;;;;;;30.88;12.98;;;;;;;;;;4982670;28;20256;-74
2022/04/13 04:51:01;;;;;;;36.45;14.80;;;;;;;;;;4982443;28;20864;-74
2022/04/13 04:53:26;;;;;;;43.15;14.27;;;;;;;;;;4981502;28;20041;-74
2022/04/13 04:55:51;;;;;;;36.45;14.73;;;;;;;;;;4981321;28;20495;-74
2022/04/13 04:58:16;;;;;;;40.67;14.73;;;;;;;;;;4984976;28;20065;-74
2022/04/13 05:00:41;;;;;;;36.78;14.02;;;;;;;;;;4983970;28;20388;-74
2022/04/13 05:03:08;;;;;;;34.38;14.65;;;;;;;;;;4981619;28;20031;-76
2022/04/13 05:05:33;;;;;;;36.03;13.82;;;;;;;;;;4977194;28;20026;-75
2022/04/13 05:07:58;;;;;;;39.10;14.30;;;;;;;;;;4982916;28;20385;-75
2022/04/13 05:10:23;;;;;;;35.67;13.75;;;;;;;;;;4987664;28;20058;-72
2022/04/13 05:12:50;;;;;;;38.63;14.70;;;;;;;;;;4983962;28;20060;-72
2022/04/13 05:15:15;;;;;;;38.53;15.40;;;;;;;;;;4985402;28;20295;-73
2022/04/13 05:17:41;;;;;;;41.22;15.32;;;;;;;;;;4981407;28;20113;-73
2022/04/13 05:20:07;;;;;;;46.92;15.55;;;;;;;;;;4985215;28;20018;-72
2022/04/13 05:22:33;;;;;;;46.63;17.52;;;;;;;;;;4982995;28;20380;-72
2022/04/13 05:25:06;;;;;;;45.70;15.88;;;;;;;;;;4979164;28;20018;-72
2022/04/13 05:27:31;;;;;;;39.53;15.88;;;;;;;;;;4981491;28;20241;-75
2022/04/13 05:29:57;;;;;;;42.13;17.83;;;;;;;;;;4981651;28;20049;-76
2022/04/13 05:32:22;;;;;;;38.72;15.77;;;;;;;;;;4988177;28;20059;-76
2022/04/13 05:34:47;;;;;;;37.37;16.40;;;;;;;;;;4984407;28;20385;-75
2022/04/13 05:37:12;;;;;;;44.03;16.58;;;;;;;;;;4983367;28;20776;-75
2022/04/13 05:39:38;;;;;;;43.90;17.70;;;;;;;;;;4983578;28;20542;-76
2022/04/13 05:42:04;;;;;;;44.38;17.13;;;;;;;;;;4982073;28;20279;-75
2022/04/13 05:44:29;;;;;;;37.67;16.35;;;;;;;;;;4989533;28;20080;-76
2022/04/13 05:46:54;;;;;;;43.07;16.50;;;;;;;;;;4980964;28;20030;-75
2022/04/13 05:49:19;;;;;;;46.22;16.75;;;;;;;;;;4995730;28;21192;-76
2022/04/13 05:51:44;;;;;;;49.10;17.35;;;;;;;;;;4990037;28;20014;-76
2022/04/13 05:54:09;;;;;;;64.28;24.77;;;;;;;;;;4980087;28;20042;-71
2022/04/13 05:56:34;;;;;;;56.97;25.43;;;;;;;;;;4979936;28;20125;-72
2022/04/13 05:59:00;;;;;;;83.65;26.05;;;;;;;;;;4982122;28;20272;-72
2022/04/13 06:01:25;;;;;;;73.72;26.15;;;;;;;;;;4977389;28;20094;-72
2022/04/13 06:03:50;;;;;;;59.65;27.23;;;;;;;;;;4985014;28;20042;-72
2022/04/13 06:06:15;;;;;;;77.47;25.13;;;;;;;;;;4981757;28;20073;-73
2022/04/13 06:08:40;;;;;;;60.53;26.35;;;;;;;;;;4974371;28;20367;-72
2022/04/13 06:11:06;;;;;;;69.97;25.87;;;;;;;;;;4983658;28;20332;-72
2022/04/13 06:13:31;;;;;;;57.80;23.90;;;;;;;;;;4976871;28;20031;-73
2022/04/13 06:15:56;;;;;;;59.13;25.10;;;;;;;;;;4981522;28;20026;-72
2022/04/13 06:18:21;;;;;;;73.35;25.10;;;;;;;;;;4981288;28;20472;-73
2022/04/13 06:20:47;;;;;;;75.75;26.70;;;;;;;;;;4987219;28;20157;-73
2022/04/13 06:23:12;;;;;;;61.03;26.52;;;;;;;;;;4979761;28;20038;-73
2022/04/13 06:25:37;;;;;;;62.43;25.20;;;;;;;;;;4975178;28;20050;-73
2022/04/13 06:28:02;;;;;;;69.60;26.23;;;;;;;;;;4978922;28;20636;-73
2022/04/13 06:30:27;;;;;;;71.30;25.67;;;;;;;;;;4973393;28;20359;-72
2022/04/13 06:32:53;;;;;;;60.53;23.83;;;;;;;;;;4977185;28;20735;-71
2022/04/13 06:35:18;;;;;;;55.92;24.20;;;;;;;;;;4981248;28;20284;-72
2022/04/13 06:37:46;;;;;;;60.07;23.97;;;;;;;;;;4979531;28;20041;-71
2022/04/13 06:40:12;;;;;;;66.55;25.42;;;;;;;;;;4980257;28;20818;-71
2022/04/13 06:42:38;;;;;;;55.50;22.98;;;;;;;;;;4977937;28;20049;-72
2022/04/13 06:45:08;;;;;;;52.45;22.67;;;;;;;;;;4977704;28;20029;-71
2022/04/13 06:47:33;;;;;;;67.25;22.75;;;;;;;;;;4977860;28;20027;-71
2022/04/13 06:49:58;;;;;;;55.87;21.37;;;;;;;;;;4978460;28;20519;-72
2022/04/13 06:52:24;;;;;;;68.55;22.35;;;;;;;;;;4981720;28;21115;-71
2022/04/13 06:54:49;;;;;;;51.25;21.63;;;;;;;;;;4977732;28;20034;-71
2022/04/13 06:57:14;;;;;;;58.30;21.77;;;;;;;;;;4980443;28;20022;-71
2022/04/13 06:59:39;;;;;;;55.72;23.10;;;;;;;;;;4977198;28;20660;-74
2022/04/13 07:02:10;;;;;;;61.17;22.00;;;;;;;;;;4978743;28;20030;-71
2022/04/13 07:04:36;;;;;;;57.13;20.35;;;;;;;;;;4977647;28;20184;-71
2022/04/13 07:07:01;;;;;;;56.25;21.48;;;;;;;;;;4980059;28;20029;-72
2022/04/13 07:09:26;;;;;;;63.17;24.20;;;;;;;;;;4981948;28;20057;-72
2022/04/13 07:11:51;;;;;;;69.67;22.80;;;;;;;;;;4978252;28;20045;-72
2022/04/13 07:14:16;;;;;;;60.57;24.23;;;;;;;;;;4980522;28;20268;-71
2022/04/13 07:16:41;;;;;;;61.97;22.80;;;;;;;;;;4975350;28;20718;-72
2022/04/13 07:19:07;;;;;;;61.50;24.25;;;;;;;;;;4984136;28;20278;-74
2022/04/13 07:21:32;;;;;;;69.23;24.33;;;;;;;;;;4976905;28;20066;-72
2022/04/13 07:23:57;;;;;;;85.03;25.73;;;;;;;;;;4981265;28;20286;-71
2022/04/13 07:26:23;;;;;;;68.53;26.30;;;;;;;;;;4977115;28;20026;-70
2022/04/13 07:28:48;;;;;;;66.60;24.88;;;;;;;;;;4987186;28;20314;-70
2022/04/13 07:31:13;;;;;;;63.22;24.92;;;;;;;;;;4981623;28;20021;-70
2022/04/13 07:33:38;;;;;;;70.88;25.08;;;;;;;;;;4977168;28;20076;-71
2022/04/13 07:36:04;;;;;;;68.93;25.97;;;;;;;;;;4983670;28;20069;-71
2022/04/13 07:38:29;;;;;;;80.75;29.27;;;;;;;;;;4979476;28;20303;-72
2022/04/13 07:40:54;;;;;;;77.80;30.58;;;;;;;;;;4980874;28;20030;-72
2022/04/13 07:43:20;;;;;;;73.50;26.88;;;;;;;;;;4978884;28;20127;-72
2022/04/13 07:45:45;;;;;;;80.97;28.02;;;;;;;;;;4976579;28;20100;-72
2022/04/13 07:48:10;;;;;;;78.27;28.07;;;;;;;;;;4981886;28;20026;-71
2022/04/13 07:50:35;;;;;;;68.50;26.73;;;;;;;;;;4978622;28;20764;-71
2022/04/13 07:53:01;;;;;;;76.93;27.53;;;;;;;;;;4978661;28;20485;-71
2022/04/13 07:55:26;;;;;;;63.57;26.40;;;;;;;;;;4977209;28;20499;-71
2022/04/13 07:57:51;;;;;;;67.45;24.65;;;;;;;;;;4976437;28;20283;-71
2022/04/13 08:00:16;;;;;;;61.28;24.65;;;;;;;;;;4984530;28;20493;-71
2022/04/13 08:02:42;;;;;;;70.95;26.98;;;;;;;;;;4981687;28;20037;-71
2022/04/13 08:05:07;;;;;;;67.18;26.02;;;;;;;;;;4986882;28;20180;-71
2022/04/13 08:07:33;;;;;;;58.15;24.05;;;;;;;;;;4975631;28;20280;-71
2022/04/13 08:09:59;;;;;;;101.15;35.08;;;;;;;;;;4985885;28;20113;-71
2022/04/13 08:12:26;;;;;;;156.20;44.90;;;;;;;;;;4987405;28;20520;-72
2022/04/13 08:14:52;;;;;;;126.85;38.85;;;;;;;;;;4980871;28;20567;-70
2022/04/13 08:17:17;;;;;;;65.82;25.83;;;;;;;;;;4985947;28;20061;-71
2022/04/13 08:19:44;;;;;;;70.93;26.48;;;;;;;;;;4984269;28;20049;-71
2022/04/13 08:22:09;;;;;;;72.90;23.88;;;;;;;;;;4982856;28;20026;-71
2022/04/13 08:24:34;;;;;;;64.78;23.92;;;;;;;;;;4981924;28;20026;-71
2022/04/13 08:26:59;;;;;;;68.60;25.83;;;;;;;;;;4982042;28;20057;-71
2022/04/13 08:29:25;;;;;;;63.40;25.98;;;;;;;;;;4987139;28;20069;-71
2022/04/13 08:31:50;;;;;;;56.22;21.60;;;;;;;;;;4981102;28;20458;-71
2022/04/13 08:34:15;;;;;;;100.80;55.63;;;;;;;;;;4988372;28;20133;-71
2022/04/13 08:36:41;;;;;;;79.57;32.22;;;;;;;;;;4988242;28;20290;-70
2022/04/13 08:39:13;;;;;;;57.23;23.20;;;;;;;;;;4993534;28;20069;-71
2022/04/13 08:41:58;;;;;;;38.22;15.30;;;;;;;;;;4980053;28;20387;-73
2022/04/13 08:44:33;;;;;;;35.67;14.15;;;;;;;;;;4978783;28;20030;-70
2022/04/13 08:47:01;;;;;;;42.63;15.80;;;;;;;;;;4981310;28;20061;-71
2022/04/13 08:49:26;;;;;;;40.53;16.27;;;;;;;;;;4978724;28;20117;-72
2022/04/13 08:51:53;;;;;;;39.53;16.93;;;;;;;;;;4979144;28;20342;-71
2022/04/13 08:54:19;;;;;;;38.00;16.80;;;;;;;;;;4981750;28;20038;-71
2022/04/13 08:56:47;;;;;;;37.30;14.73;;;;;;;;;;4981359;28;20026;-71
2022/04/13 08:59:22;;;;;;;41.25;17.00;;;;;;;;;;4981362;28;20110;-71
2022/04/13 09:01:59;;;;;;;38.33;17.05;;;;;;;;;;4977750;28;20133;-71
2022/04/13 09:04:26;;;;;;;37.75;15.57;;;;;;;;;;4981803;28;20042;-71
2022/04/13 09:06:52;;;;;;;30.80;12.57;;;;;;;;;;4979054;28;20022;-71
2022/04/13 09:09:28;;;;;;;36.55;14.10;;;;;;;;;;4983182;28;20089;-71
2022/04/13 09:11:54;;;;;;;32.65;13.07;;;;;;;;;;4981644;28;20433;-71
2022/04/13 09:14:20;;;;;;;36.53;15.38;;;;;;;;;;4980015;28;20070;-72
2022/04/13 09:16:45;;;;;;;40.47;15.65;;;;;;;;;;4983195;28;20026;-72
2022/04/13 09:19:11;;;;;;;35.60;15.43;;;;;;;;;;4980647;28;20275;-71
2022/04/13 09:21:36;;;;;;;33.90;15.25;;;;;;;;;;4978303;28;20727;-71
2022/04/13 09:24:02;;;;;;;35.20;17.02;;;;;;;;;;4980426;28;20544;-71
2022/04/13 09:26:29;;;;;;;38.67;16.33;;;;;;;;;;4983231;28;20054;-71
2022/04/13 09:28:54;;;;;;;34.17;15.20;;;;;;;;;;4980444;28;20028;-71
2022/04/13 09:31:20;;;;;;;35.45;14.48;;;;;;;;;;4982937;28;20021;-71
2022/04/13 09:33:45;;;;;;;28.90;13.98;;;;;;;;;;4979175;28;20041;-71
2022/04/13 09:36:10;;;;;;;33.30;13.27;;;;;;;;;;4978938;28;20026;-71
2022/04/13 09:38:35;;;;;;;42.50;15.77;;;;;;;;;;4981232;28;20036;-71
2022/04/13 09:41:08;;;;;;;45.53;17.40;;;;;;;;;;4977821;28;20076;-71
2022/04/13 09:43:34;;;;;;;44.22;18.95;;;;;;;;;;4978928;28;20018;-71
2022/04/13 09:45:59;;;;;;;47.50;19.08;;;;;;;;;;4978022;28;20030;-71
2022/04/13 09:48:26;;;;;;;36.27;17.30;;;;;;;;;;4978992;28;20041;-71
2022/04/13 09:50:51;;;;;;;45.95;19.05;;;;;;;;;;4982963;28;20586;-72
2022/04/13 09:53:19;;;;;;;41.28;17.67;;;;;;;;;;4980549;28;20076;-71
2022/04/13 09:55:45;;;;;;;45.10;16.88;;;;;;;;;;4981276;28;20037;-71
2022/04/13 09:58:16;;;;;;;36.40;16.00;;;;;;;;;;4974576;28;20405;-71
2022/04/13 10:00:42;;;;;;;40.75;18.35;;;;;;;;;;4979322;28;20397;-71
2022/04/13 10:03:11;;;;;;;47.03;19.58;;;;;;;;;;4976391;28;20033;-71
2022/04/13 10:05:37;;;;;;;46.75;18.83;;;;;;;;;;4978292;28;20022;-71
2022/04/13 10:08:06;;;;;;;56.72;22.58;;;;;;;;;;4980796;28;20022;-72
2022/04/13 10:10:31;;;;;;;50.67;19.75;;;;;;;;;;4981712;28;20022;-71
2022/04/13 10:12:57;;;;;;;36.25;14.25;;;;;;;;;;4976008;28;20141;-71
2022/04/13 10:15:22;;;;;;;33.92;14.65;;;;;;;;;;4978257;28;20025;-71
2022/04/13 10:17:47;;;;;;;43.23;15.90;;;;;;;;;;4977842;28;20038;-71
2022/04/13 10:20:12;;;;;;;42.07;16.00;;;;;;;;;;4980715;28;20280;-72
2022/04/13 10:22:59;;;;;;;36.55;14.57;;;;;;;;;;4983101;28;20512;-73
2022/04/13 10:25:27;;;;;;;45.65;16.67;;;;;;;;;;4981084;28;20456;-74
2022/04/13 10:27:56;;;;;;;42.53;18.30;;;;;;;;;;4979368;28;20496;-69
2022/04/13 10:30:28;;;;;;;46.67;15.98;;;;;;;;;;4986820;28;20307;-76
2022/04/13 10:32:58;;;;;;;40.35;17.25;;;;;;;;;;4976744;28;20101;-73
2022/04/13 10:35:23;;;;;;;40.50;16.05;;;;;;;;;;4976936;28;20015;-71
2022/04/13 10:37:49;;;;;;;41.38;17.20;;;;;;;;;;4982060;28;20453;-71
2022/04/13 10:40:14;;;;;;;46.13;16.47;;;;;;;;;;4979683;28;20036;-71
2022/04/13 10:42:41;;;;;;;44.77;15.70;;;;;;;;;;4979410;28;20276;-71
2022/04/13 10:45:07;;;;;;;40.28;15.82;;;;;;;;;;4976281;28;20022;-70
2022/04/13 10:47:40;;;;;;;40.78;16.17;;;;;;;;;;4978133;28;20049;-70
2022/04/13 10:50:06;;;;;;;39.03;16.35;;;;;;;;;;4978914;28;20346;-70
2022/04/13 10:52:47;;;;;;;33.95;14.93;;;;;;;;;;4979523;28;20119;-70
2022/04/13 10:55:13;;;;;;;46.63;18.58;;;;;;;;;;4978300;28;20608;-70
2022/04/13 10:57:50;;;;;;;46.97;18.05;;;;;;;;;;4978165;28;20117;-70
2022/04/13 11:00:17;;;;;;;41.13;18.27;;;;;;;;;;4983200;28;20050;-69
2022/04/13 11:02:46;;;;;;;37.75;15.65;;;;;;;;;;4978410;28;20014;-69
2022/04/13 11:05:12;;;;;;;42.50;16.48;;;;;;;;;;4977292;28;20023;-70
2022/04/13 11:07:37;;;;;;;42.85;17.20;;;;;;;;;;4975945;28;20018;-69
2022/04/13 11:10:04;;;;;;;39.35;19.35;;;;;;;;;;4977421;28;20026;-69
2022/04/13 11:12:30;;;;;;;45.80;18.75;;;;;;;;;;4979883;28;20524;-69
2022/04/13 11:14:58;;;;;;;45.50;19.05;;;;;;;;;;4975145;28;20346;-69
2022/04/13 11:17:24;;;;;;;42.05;18.60;;;;;;;;;;4975185;28;20227;-69
2022/04/13 11:19:50;;;;;;;52.25;17.55;;;;;;;;;;4977188;28;20184;-69
2022/04/13 11:22:18;;;;;;;46.33;20.13;;;;;;;;;;4981040;28;20026;-69
2022/04/13 11:24:46;;;;;;;54.22;21.98;;;;;;;;;;4980535;28;20025;-69
2022/04/13 11:27:12;;;;;;;50.40;20.17;;;;;;;;;;4978570;28;20026;-69
2022/04/13 11:29:37;;;;;;;40.47;18.90;;;;;;;;;;4978862;28;20022;-69
2022/04/13 11:32:05;;;;;;;46.70;18.17;;;;;;;;;;4980859;28;20031;-69
2022/04/13 11:34:30;;;;;;;48.60;18.92;;;;;;;;;;4977328;28;20076;-69
2022/04/13 11:36:59;;;;;;;40.23;18.10;;;;;;;;;;4977957;28;20031;-69
2022/04/13 11:39:43;;;;;;;37.22;17.00;;;;;;;;;;4980160;28;20067;-69
2022/04/13 11:42:13;;;;;;;41.17;16.90;;;;;;;;;;4991515;28;20052;-70
2022/04/13 11:44:48;;;;;;;36.65;15.27;;;;;;;;;;4991966;28;20032;-70
2022/04/13 11:47:17;;;;;;;34.70;14.52;;;;;;;;;;4989326;28;20098;-69
2022/04/13 11:50:02;;;;;;;33.00;13.43;;;;;;;;;;4990816;28;20379;-69
2022/04/13 11:52:48;;;;;;;28.83;12.00;;;;;;;;;;4986775;28;20026;-69
2022/04/13 11:55:17;;;;;;;34.13;15.27;;;;;;;;;;4994182;28;20026;-69
2022/04/13 11:58:20;;;;;;;35.22;12.48;;;;;;;;;;4988345;28;20062;-70
2022/04/13 12:00:45;;;;;;;30.35;12.77;;;;;;;;;;4987114;28;20046;-70
2022/04/13 12:03:13;;;;;;;31.73;11.65;;;;;;;;;;4980729;28;20137;-70
2022/04/13 12:05:39;;;;;;;32.97;12.70;;;;;;;;;;4985354;28;20569;-69
2022/04/13 12:08:11;;;;;;;35.83;12.02;;;;;;;;;;4987419;28;20018;-69
2022/04/13 12:10:37;;;;;;;28.80;11.30;;;;;;;;;;4981713;28;20036;-69
2022/04/13 12:13:03;;;;;;;33.33;12.38;;;;;;;;;;4982978;28;20030;-69
2022/04/13 12:15:39;;;;;;;30.58;11.57;;;;;;;;;;4982492;28;20030;-69
2022/04/13 12:18:09;;;;;;;28.33;12.57;;;;;;;;;;4983244;28;20464;-69
2022/04/13 12:20:34;;;;;;;27.23;11.50;;;;;;;;;;4989301;28;20169;-69
2022/04/13 12:23:13;;;;;;;31.10;12.77;;;;;;;;;;4984980;28;20962;-69
2022/04/13 12:25:44;;;;;;;32.38;12.43;;;;;;;;;;4983351;28;20456;-69
2022/04/13 12:28:09;;;;;;;36.13;18.10;;;;;;;;;;4980358;28;20022;-69
2022/04/13 12:30:34;;;;;;;48.70;18.83;;;;;;;;;;4982336;28;20026;-69
2022/04/13 12:33:10;;;;;;;31.67;13.52;;;;;;;;;;4988874;28;20018;-69
2022/04/13 12:35:45;;;;;;;34.50;11.82;;;;;;;;;;4977060;28;20077;-69
2022/04/13 12:38:19;;;;;;;37.75;12.88;;;;;;;;;;4982034;28;20018;-70
2022/04/13 12:40:44;;;;;;;31.63;11.48;;;;;;;;;;4978301;28;20050;-70
2022/04/13 12:43:10;;;;;;;36.47;12.00;;;;;;;;;;4984674;28;20177;-69
2022/04/13 12:45:36;;;;;;;31.15;13.30;;;;;;;;;;4979666;28;20030;-69
2022/04/13 12:48:07;;;;;;;35.40;11.75;;;;;;;;;;4979253;28;20380;-69
2022/04/13 12:50:32;;;;;;;34.95;12.30;;;;;;;;;;4974500;28;20054;-70
2022/04/13 12:52:58;;;;;;;38.15;13.50;;;;;;;;;;4980476;28;20172;-70
2022/04/13 12:55:24;;;;;;;31.65;12.73;;;;;;;;;;4989718;28;20022;-70
2022/04/13 12:57:49;;;;;;;29.20;12.07;;;;;;;;;;4979920;28;20522;-70
2022/04/13 13:00:34;;;;;;;32.72;12.68;;;;;;;;;;4979556;28;20026;-69
2022/04/13 13:02:59;;;;;;;32.15;13.05;;;;;;;;;;4978079;28;20341;-70
2022/04/13 13:05:24;;;;;;;27.88;13.15;;;;;;;;;;4983926;28;20035;-69
2022/04/13 13:07:49;;;;;;;31.97;12.57;;;;;;;;;;4986367;28;20023;-70
2022/04/13 13:10:15;;;;;;;36.88;12.85;;;;;;;;;;4985792;28;20054;-70
2022/04/13 13:12:40;;;;;;;39.37;15.43;;;;;;;;;;4987665;28;20321;-70
2022/04/13 13:15:05;;;;;;;34.97;13.20;;;;;;;;;;4983544;28;20642;-70
2022/04/13 13:17:31;;;;;;;30.92;13.68;;;;;;;;;;4976482;28;20746;-70
2022/04/13 13:20:07;;;;;;;41.60;14.55;;;;;;;;;;4980034;28;20114;-70
2022/04/13 13:22:38;;;;;;;35.65;14.18;;;;;;;;;;4976905;28;20803;-72
2022/04/13 13:25:04;;;;;;;38.42;14.65;;;;;;;;;;4976739;28;20417;-70
2022/04/13 13:27:39;;;;;;;35.28;12.77;;;;;;;;;;4982028;28;20698;-69
2022/04/13 13:30:05;;;;;;;36.65;14.07;;;;;;;;;;4978722;28;20555;-69
2022/04/13 13:32:33;;;;;;;37.53;14.10;;;;;;;;;;4980174;28;20023;-70
2022/04/13 13:35:00;;;;;;;43.40;15.82;;;;;;;;;;4981647;28;20551;-70
2022/04/13 13:37:42;;;;;;;50.80;16.42;;;;;;;;;;4988304;28;20034;-70
2022/04/13 13:40:26;;;;;;;45.40;17.02;;;;;;;;;;4984424;28;20072;-70
2022/04/13 13:42:51;;;;;;;42.55;15.98;;;;;;;;;;4977847;28;20535;-70
2022/04/13 13:45:17;;;;;;;38.50;16.25;;;;;;;;;;4980639;28;20483;-70
2022/04/13 13:47:42;;;;;;;42.28;14.60;;;;;;;;;;4982259;28;22260;-70
2022/04/13 13:50:08;;;;;;;57.67;16.27;;;;;;;;;;4982743;28;20026;-70
2022/04/13 13:52:33;;;;;;;48.83;16.20;;;;;;;;;;4978278;28;20019;-69
2022/04/13 13:54:58;;;;;;;40.97;15.17;;;;;;;;;;4982194;28;20033;-69
2022/04/13 13:57:24;;;;;;;46.23;16.23;;;;;;;;;;4980070;28;20042;-70
2022/04/13 13:59:49;;;;;;;46.88;17.13;;;;;;;;;;4980392;28;20015;-69
2022/04/13 14:02:14;;;;;;;57.40;24.05;;;;;;;;;;4975844;28;20060;-70
2022/04/13 14:04:39;;;;;;;84.40;46.85;;;;;;;;;;4983776;28;20045;-70
2022/04/13 14:07:04;;;;;;;50.63;22.92;;;;;;;;;;4980292;28;20037;-70
2022/04/13 14:09:29;;;;;;;44.78;19.20;;;;;;;;;;4977675;28;20042;-70
2022/04/13 14:11:56;;;;;;;45.00;17.70;;;;;;;;;;4980348;28;20486;-70
2022/04/13 14:14:21;;;;;;;54.20;17.52;;;;;;;;;;4982740;28;20031;-69
2022/04/13 14:16:48;;;;;;;49.03;17.10;;;;;;;;;;4979623;28;20026;-69